Impacts METAR Board
IDs:

KAUS - Austin/Bergstrom Int, TX, US

Updated at: 1200 UTC 16 Jul 2019
Potential Impact None Slight Moderate High
Time 16/00Z 16/01Z 16/02Z 16/03Z 16/04Z 16/05Z 16/06Z 16/07Z 16/08Z 16/09Z 16/10Z 16/11Z 16/12Z
Temp88 90 86 87 84 83 81 80 79 78 78 78 77
Dewpt75 75 74 74 74 75 76 76 76 76 76 76 76
Altim29.86 29.87 29.88 29.89 29.91 29.94 29.95 29.95 29.96 29.96 29.96 29.98 29.99
VIS10 10 10 10 10 10 10 10 10 10 10 10 8
CIG200 200 -- -- -- -- -- -- -- -- -- -- --
CoverBKNBKNFEWFEWFEWCLRCLRCLRCLRFEWFEWFEWSCT
FltCatVFRVFRVFRVFRVFRVFRVFRVFRVFRVFRVFRVFRVFR
WX--------------------------
WDir0190150160180180180180170170180200190
WSpd5 3 6 9 10 13 10 8 5 6 6 6 5
WGst-- -- -- -- -- -- -- -- -- -- -- -- --
Raw hourly METARs
KAUS 152353Z VRB05KT 10SM FEW045 BKN200 31/24 A2986 RMK AO2 SLP100 TCU DSNT E T03110239 10361 20294 58008 $
KAUS 160053Z 19003KT 10SM FEW035 BKN200 32/24 A2987 RMK AO2 SLP102 T03220239 $
KAUS 160153Z 15006KT 10SM FEW030 FEW200 30/23 A2988 RMK AO2 SLP105 T03000233 $
KAUS 160253Z 16009KT 10SM FEW250 31/23 A2989 RMK AO2 SLP109 T03060233 53010 $
KAUS 160353Z 18010KT 10SM FEW250 29/23 A2991 RMK AO2 SLP116 T02890233 $
KAUS 160453Z 18013KT 10SM CLR 28/24 A2994 RMK AO2 SLP124 T02830239 $
KAUS 160553Z 18010KT 10SM CLR 27/24 A2995 RMK AO2 SLP128 T02720244 10333 20272 403610233 51019 $
KAUS 160653Z 18008KT 10SM CLR 27/24 A2995 RMK AO2 SLP130 T02670244 $
KAUS 160753Z 17005KT 10SM CLR 26/24 A2996 RMK AO2 SLP131 T02610244 $
KAUS 160853Z 17006KT 10SM FEW013 26/24 A2996 RMK AO2 SLP132 T02560244 51004 $
KAUS 160953Z 18006KT 10SM FEW013 26/24 A2996 RMK AO2 SLP133 T02560244 $
KAUS 161053Z 20006KT 10SM FEW016 26/24 A2998 RMK AO2 SLP140 T02560244 $
KAUS 161153Z 19005KT 8SM SCT022 25/24 A2999 RMK AO2 SLP142 T02500244 10272 20250 53009